createdAt,value
2018-12-13T00:00:27.891Z,29.8
2018-12-13T00:01:17.942Z,30.2
2018-12-13T00:02:08.786Z,30.5
2018-12-13T00:02:57.824Z,30.8
2018-12-13T00:03:48.979Z,31.1
2018-12-13T00:04:39.054Z,31.4
2018-12-13T00:05:28.248Z,31.6
2018-12-13T00:06:18.866Z,31.8
2018-12-13T00:07:09.124Z,32
2018-12-13T00:07:57.948Z,32.3
2018-12-13T00:08:49.123Z,32.4
2018-12-13T00:09:39.183Z,32.6
2018-12-13T00:10:28.933Z,32.3
2018-12-13T00:11:19.331Z,31.6
2018-12-13T00:12:08.238Z,31.5
2018-12-13T00:12:58.836Z,31.3
2018-12-13T00:13:48.031Z,30.9
2018-12-13T00:14:38.440Z,30.4
2018-12-13T00:32:51.714Z,26
2018-12-13T00:33:41.986Z,25.8
2018-12-13T00:34:31.226Z,25.8
2018-12-13T00:35:20.526Z,25.7
2018-12-13T00:36:11.374Z,25.6
2018-12-13T00:37:01.156Z,25.6
2018-12-13T00:37:52.029Z,25.5
2018-12-13T00:38:41.844Z,25.5
2018-12-13T00:39:31.081Z,25.4
2018-12-13T00:40:21.109Z,25.4
2018-12-13T00:41:11.771Z,25.1
2018-12-13T00:42:01.839Z,24.8
2018-12-13T00:42:51.848Z,24.6
2018-12-13T00:43:41.641Z,24.5
2018-12-13T00:44:31.407Z,24.4
2018-12-13T00:45:22.029Z,24.4
2018-12-13T00:46:12.105Z,24.3
2018-12-13T00:47:01.866Z,24.3
2018-12-13T00:47:52.768Z,24.3
2018-12-13T00:48:41.979Z,24.1
2018-12-13T00:49:31.785Z,24.4
2018-12-13T00:50:22.141Z,25.4
2018-12-13T00:51:12.443Z,26.2
2018-12-13T00:52:01.930Z,26.9
2018-12-13T00:52:52.522Z,27.7
2018-12-13T00:53:42.603Z,28.3
2018-12-13T00:54:32.990Z,28.8
2018-12-13T00:55:23.011Z,29.2
2018-12-13T00:56:12.488Z,29.6
2018-12-13T00:57:02.820Z,29.9
2018-12-13T00:57:53.398Z,30.2
2018-12-13T00:58:42.697Z,30.5
2018-12-13T00:59:32.195Z,30.8
2018-12-13T01:00:23.070Z,31
2018-12-13T01:01:12.295Z,31.3
2018-12-13T01:02:02.646Z,31.4
2018-12-13T01:02:53.550Z,31.6
2018-12-13T01:03:43.335Z,31.8
2018-12-13T01:04:32.807Z,31.9
2018-12-13T01:05:23.407Z,32.1
2018-12-13T01:06:13.198Z,32.3
2018-12-13T01:07:03.160Z,32.4
2018-12-13T01:07:53.099Z,32.5
2018-12-13T01:08:43.112Z,32.6
2018-12-13T01:09:33.760Z,32.7
2018-12-13T01:10:23.862Z,31.8
2018-12-13T01:11:13.019Z,31.6
2018-12-13T01:12:03.239Z,31.4
2018-12-13T01:12:52.864Z,31.1
2018-12-13T01:13:44.504Z,30.7
2018-12-13T01:14:33.559Z,30.1
2018-12-13T01:15:24.589Z,29.6
2018-12-13T01:16:13.805Z,29
2018-12-13T01:17:04.219Z,28.7
2018-12-13T01:17:53.954Z,28.4
2018-12-13T01:18:44.388Z,28.2
2018-12-13T01:19:34.374Z,28.1
2018-12-13T01:21:21.222Z,27.6
2018-12-13T01:22:05.058Z,27.5
2018-12-13T01:22:55.151Z,27.4
2018-12-13T01:23:44.394Z,27.3
2018-12-13T01:24:33.985Z,27.2
2018-12-13T01:25:24.572Z,27.1
2018-12-13T01:26:15.569Z,27.1
2018-12-13T01:27:04.632Z,27.1
2018-12-13T01:27:55.418Z,27.1
2018-12-13T01:28:45.821Z,27.1
2018-12-13T01:29:35.504Z,26.9
2018-12-13T01:30:25.614Z,26.4
2018-12-13T01:31:15.186Z,26.1
2018-12-13T01:32:05.191Z,25.9
2018-12-13T01:32:55.216Z,25.8
2018-12-13T01:33:46.066Z,25.7
2018-12-13T01:34:35.626Z,25.6
2018-12-13T01:35:25.413Z,25.5
2018-12-13T01:36:16.308Z,25.5
2018-12-13T01:37:05.506Z,25.4
2018-12-13T01:37:55.868Z,25.4
2018-12-13T01:38:46.528Z,25.4
2018-12-13T01:39:35.483Z,25.3
2018-12-13T01:40:25.728Z,25.1
2018-12-13T01:41:16.364Z,25.3
2018-12-13T01:42:06.181Z,26.1
2018-12-13T01:42:56.186Z,26.8
2018-12-13T01:43:46.573Z,27.4
2018-12-13T01:44:36.270Z,28.1
2018-12-13T01:45:26.370Z,28.6
2018-12-13T01:46:16.723Z,29
2018-12-13T01:47:06.510Z,29.4
2018-12-13T01:47:56.582Z,29.7
2018-12-13T01:48:46.603Z,29.9
2018-12-13T01:49:37.040Z,30.3
2018-12-13T01:50:26.153Z,30.5
2018-12-13T01:51:16.773Z,30.8
2018-12-13T01:52:07.098Z,30.9
2018-12-13T01:52:56.883Z,30.5
2018-12-13T01:53:46.952Z,29.6
2018-12-13T01:54:37.901Z,28.2
2018-12-13T01:55:27.052Z,27
2018-12-13T01:56:16.277Z,25.8
2018-12-13T01:57:07.435Z,25.1
2018-12-13T01:57:57.222Z,25.1
2018-12-13T01:58:47.029Z,25.6
2018-12-13T01:59:37.322Z,26.6
2018-12-13T02:00:27.367Z,27.4
2018-12-13T02:01:18.010Z,28.2
2018-12-13T02:02:07.839Z,28.8
2018-12-13T02:02:57.304Z,29.2
2018-12-13T02:03:47.382Z,29.6
2018-12-13T02:04:38.182Z,29.9
2018-12-13T02:05:28.064Z,30.2
2018-12-13T02:06:18.369Z,30.5
2018-12-13T02:07:08.457Z,30.8
2018-12-13T02:07:58.205Z,31.1
2018-12-13T02:08:48.544Z,31.3
2018-12-13T02:09:37.804Z,31.5
2018-12-13T02:10:28.386Z,31.7
2018-12-13T02:11:19.003Z,31.9
2018-12-13T02:12:08.185Z,32.1
2018-12-13T02:12:57.976Z,32.2
2018-12-13T02:13:47.831Z,32.3
2018-12-13T02:14:38.684Z,32.4
2018-12-13T02:15:28.233Z,32.6
2018-12-13T02:16:17.954Z,32.7
2018-12-13T02:17:08.529Z,32.8
2018-12-13T02:17:58.591Z,31.8
2018-12-13T02:18:48.102Z,31.6
2018-12-13T02:19:39.260Z,31.4
2018-12-13T02:20:29.091Z,31.1
2018-12-13T02:21:18.308Z,30.7
2018-12-13T02:22:08.666Z,30.2
2018-12-13T02:22:58.661Z,29.5
2018-12-13T02:23:49.011Z,28.9
2018-12-13T02:24:39.053Z,28.6
2018-12-13T02:25:29.155Z,28.3
2018-12-13T02:26:19.730Z,28
2018-12-13T02:27:09.500Z,27.9
2018-12-13T02:27:59.563Z,27.7
2018-12-13T02:28:49.620Z,27.5
2018-12-13T02:29:38.568Z,27.4
2018-12-13T02:30:29.830Z,27.3
2018-12-13T02:31:19.911Z,27.1
2018-12-13T02:32:09.721Z,27.1
2018-12-13T02:32:59.423Z,27.1
2018-12-13T02:33:49.705Z,27
2018-12-13T02:34:39.800Z,26.9
2018-12-13T02:35:30.131Z,26.9
2018-12-13T02:36:20.173Z,26.9
2018-12-13T02:37:12.532Z,26.8
2018-12-13T02:37:59.838Z,26.3
2018-12-13T02:38:50.322Z,26.1
2018-12-13T02:39:40.780Z,25.8
2018-12-13T02:40:29.687Z,25.7
2018-12-13T02:41:20.586Z,25.6
2018-12-13T02:42:09.209Z,25.5
2018-12-13T02:43:00.734Z,25.4
2018-12-13T02:43:49.870Z,25.4
2018-12-13T02:44:40.458Z,25.3
2018-12-13T02:45:30.546Z,25.3
2018-12-13T02:46:20.627Z,25.2
2018-12-13T02:47:10.085Z,25.1
2018-12-13T02:47:59.596Z,25.2
2018-12-13T02:48:51.049Z,26
2018-12-13T02:49:40.568Z,26.7
2018-12-13T02:50:31.560Z,27.3
2018-12-13T02:51:20.179Z,28.1
2018-12-13T02:52:12.514Z,28.5
2018-12-13T02:53:01.323Z,29
2018-12-13T02:53:51.690Z,29.3
2018-12-13T02:54:40.313Z,29.7
2018-12-13T02:55:31.645Z,29.9
2018-12-13T02:56:20.726Z,30.3
2018-12-13T02:57:11.409Z,30.6
2018-12-13T02:58:00.656Z,30.8
2018-12-13T02:58:51.481Z,30.9
2018-12-13T02:59:41.516Z,31.1
2018-12-13T03:00:32.151Z,31.4
2018-12-13T03:01:21.550Z,31.5
2018-12-13T03:02:12.197Z,31.7
2018-12-13T03:03:02.002Z,31.8
2018-12-13T03:03:52.048Z,31.9
2018-12-13T03:04:41.587Z,32.1
2018-12-13T03:05:31.338Z,32.2
2018-12-13T03:06:21.473Z,32.3
2018-12-13T03:07:19.865Z,32.4
2018-12-13T03:08:02.777Z,32.6
2018-12-13T03:08:52.120Z,32.7
2018-12-13T03:09:42.225Z,32.8
2018-12-13T03:10:31.948Z,32.8
2018-12-13T03:11:22.810Z,32.1
2018-12-13T03:12:11.836Z,31.6
2018-12-13T03:13:02.396Z,31.5
2018-12-13T03:13:51.630Z,31.2
2018-12-13T03:14:41.767Z,30.8
2018-12-13T03:15:31.568Z,30.3
2018-12-13T03:16:22.170Z,29.7
2018-12-13T03:17:12.833Z,29.1
2018-12-13T03:18:02.863Z,28.8
2018-12-13T03:18:52.622Z,28.4
2018-12-13T03:19:42.705Z,28.3
2018-12-13T03:20:32.999Z,28.1
2018-12-13T03:21:22.467Z,27.9
2018-12-13T03:22:12.864Z,27.7
2018-12-13T03:23:02.677Z,27.5
2018-12-13T03:23:53.202Z,27.3
2018-12-13T03:24:42.709Z,27.2
2018-12-13T03:25:33.026Z,27.1
2018-12-13T03:26:23.771Z,27.1
2018-12-13T03:27:13.452Z,27
2018-12-13T03:28:02.995Z,26.9
2018-12-13T03:28:53.024Z,26.9
2018-12-13T03:29:43.362Z,26.9
2018-12-13T03:30:33.580Z,26.9
2018-12-13T03:31:23.072Z,26.8
2018-12-13T03:32:14.293Z,26.3
2018-12-13T03:33:03.887Z,25.9
2018-12-13T03:33:53.826Z,25.7
2018-12-13T03:34:43.390Z,25.6
2018-12-13T03:35:33.699Z,25.5
2018-12-13T03:36:25.148Z,25.4
2018-12-13T03:37:21.145Z,25.3
2018-12-13T03:38:04.148Z,25.3
2018-12-13T03:38:54.453Z,25.3
2018-12-13T03:39:44.859Z,25.2
2018-12-13T03:40:34.839Z,24.9
2018-12-13T03:41:24.381Z,25.2
2018-12-13T03:42:14.703Z,26
2018-12-13T03:43:03.692Z,26.7
2018-12-13T03:43:54.856Z,27.3
2018-12-13T03:44:45.156Z,28.1
2018-12-13T03:45:34.968Z,28.6
2018-12-13T03:46:24.963Z,28.9
2018-12-13T03:47:14.523Z,29.3
2018-12-13T03:48:04.791Z,29.6
2018-12-13T03:48:54.666Z,29.9
2018-12-13T03:49:44.936Z,30.1
2018-12-13T03:50:34.704Z,30.4
2018-12-13T03:51:25.392Z,30.6
2018-12-13T03:52:14.605Z,30.8
2018-12-13T03:53:05.778Z,31
2018-12-13T03:53:55.248Z,31.1
2018-12-13T03:54:45.008Z,31.3
2018-12-13T03:55:35.673Z,31.5
2018-12-13T03:56:25.803Z,31.6
2018-12-13T03:57:16.035Z,31.8
2018-12-13T03:58:05.241Z,31.9
2018-12-13T03:58:55.337Z,32.1
2018-12-13T03:59:45.322Z,32.1
2018-12-13T04:00:35.464Z,32.1
2018-12-13T04:01:25.194Z,31
2018-12-13T04:02:16.044Z,29.6
2018-12-13T04:03:05.605Z,28.3
2018-12-13T04:03:55.627Z,27.1
2018-12-13T04:04:46.307Z,25.8
2018-12-13T04:05:35.739Z,25
2018-12-13T04:06:25.569Z,25.1
2018-12-13T04:07:15.954Z,25.5
2018-12-13T04:08:06.472Z,26.6
2018-12-13T04:08:56.011Z,27.4
2018-12-13T04:09:46.587Z,28.2
2018-12-13T04:10:35.864Z,28.8
2018-12-13T04:11:26.841Z,29.3
2018-12-13T04:12:17.414Z,29.7
2018-12-13T04:13:06.262Z,30
2018-12-13T04:13:56.162Z,30.3
2018-12-13T04:14:46.748Z,30.6
2018-12-13T04:15:36.576Z,30.9
2018-12-13T04:16:26.775Z,31.1
2018-12-13T04:17:16.781Z,31.3
2018-12-13T04:18:06.360Z,31.5
2018-12-13T04:18:57.009Z,31.7
2018-12-13T04:19:47.541Z,31.8
2018-12-13T04:20:37.692Z,31.9
2018-12-13T04:21:27.133Z,32.1
2018-12-13T04:22:17.554Z,32.3
2018-12-13T04:23:07.234Z,32.4
2018-12-13T04:23:56.991Z,32.5
2018-12-13T04:24:46.765Z,32.6
2018-12-13T04:25:38.122Z,32.8
2018-12-13T04:26:26.598Z,32.4
2018-12-13T04:27:17.240Z,31.7
2018-12-13T04:28:06.725Z,31.5
2018-12-13T04:28:57.370Z,31.3
2018-12-13T04:29:47.983Z,31
2018-12-13T04:30:38.770Z,30.5
2018-12-13T04:31:28.344Z,29.9
2018-12-13T04:32:18.210Z,29.3
2018-12-13T04:33:07.920Z,28.9
2018-12-13T04:33:57.728Z,28.4
2018-12-13T04:34:47.724Z,28.2
2018-12-13T04:35:38.407Z,27.9
2018-12-13T04:37:18.490Z,27.6
2018-12-13T04:38:07.467Z,27.4
2018-12-13T04:38:58.089Z,27.3
2018-12-13T04:39:48.670Z,27.2
2018-12-13T04:40:38.653Z,27.1
2018-12-13T04:41:28.811Z,27.1
2018-12-13T04:42:18.594Z,27
2018-12-13T04:43:08.359Z,27
2018-12-13T04:43:57.511Z,26.9
2018-12-13T04:44:47.896Z,26.9
2018-12-13T05:02:04.275Z,29.1
2018-12-13T05:02:54.005Z,29.4
2018-12-13T05:03:44.953Z,29.8
2018-12-13T05:04:34.085Z,30
2018-12-13T05:05:24.147Z,30.3
2018-12-13T05:06:14.996Z,30.4
2018-12-13T05:07:05.349Z,30.7
2018-12-13T05:07:55.162Z,30.9
2018-12-13T05:08:44.370Z,31.1
2018-12-13T05:09:34.401Z,31.2
2018-12-13T05:10:24.562Z,31.4
2018-12-13T05:11:14.247Z,31.6
2018-12-13T05:12:04.659Z,31.6
2018-12-13T05:12:54.372Z,31.8
2018-12-13T05:13:45.552Z,31.9
2018-12-13T05:14:34.832Z,32
2018-12-13T05:15:24.277Z,32.1
2018-12-13T05:16:15.712Z,32.3
2018-12-13T05:17:04.447Z,32.3
2018-12-13T05:17:55.287Z,32.4
2018-12-13T05:18:45.870Z,32.5
2018-12-13T05:19:35.374Z,32.6
2018-12-13T05:20:25.993Z,32.7
2018-12-13T05:21:15.491Z,32.8
2018-12-13T05:22:05.566Z,32.8
2018-12-13T05:22:56.131Z,31.9
2018-12-13T05:23:45.927Z,31.6
2018-12-13T05:24:34.874Z,31.4
2018-12-13T05:25:25.531Z,31.2
2018-12-13T05:26:15.269Z,30.7
2018-12-13T05:27:06.184Z,30.1
2018-12-13T05:27:56.201Z,29.6
2018-12-13T05:28:45.746Z,29.1
2018-12-13T05:29:36.319Z,28.8
2018-12-13T05:30:25.861Z,28.6
2018-12-13T05:31:17.499Z,28.4
2018-12-13T05:32:05.938Z,28.3
2018-12-13T05:32:56.853Z,27.9
2018-12-13T05:33:45.928Z,27.7
2018-12-13T05:34:36.291Z,27.5
2018-12-13T05:35:26.238Z,27.3
2018-12-13T05:36:17.052Z,27.2
2018-12-13T05:37:06.283Z,27.1
2018-12-13T05:37:55.868Z,27
2018-12-13T05:38:46.705Z,26.9
2018-12-13T05:39:37.097Z,26.9
2018-12-13T05:40:27.081Z,26.8
2018-12-13T05:41:15.745Z,26.8
2018-12-13T05:42:06.632Z,26.8
2018-12-13T05:42:56.690Z,26.3
2018-12-13T05:43:46.783Z,25.9
2018-12-13T05:44:36.825Z,25.6
2018-12-13T05:45:27.454Z,25.4
2018-12-13T05:46:16.741Z,25.3
2018-12-13T05:47:06.558Z,25.2
2018-12-13T05:47:56.068Z,25.1
2018-12-13T05:48:47.198Z,25.1
2018-12-13T05:49:38.245Z,25
2018-12-13T05:50:27.573Z,24.9
2018-12-13T05:51:17.922Z,24.7
2018-12-13T05:52:08.178Z,25
2018-12-13T05:52:57.955Z,25.8
2018-12-13T05:53:47.511Z,26.4
2018-12-13T05:54:38.045Z,27.1
2018-12-13T05:55:28.135Z,27.8
2018-12-13T05:56:18.167Z,28.2
2018-12-13T05:57:07.700Z,28.6
2018-12-13T05:57:57.990Z,28.9
2018-12-13T05:58:48.059Z,29.2
2018-12-13T05:59:37.352Z,29.4
2018-12-13T06:00:28.245Z,29.7
2018-12-13T06:01:18.002Z,29.9
2018-12-13T06:02:08.402Z,30.2
2018-12-13T06:02:57.320Z,30.4
2018-12-13T06:03:47.930Z,30.6
2018-12-13T06:04:37.987Z,30.7
2018-12-13T06:05:27.112Z,30.9
2018-12-13T06:06:18.069Z,31
2018-12-13T06:07:08.961Z,31.1
2018-12-13T06:08:02.349Z,31.3
2018-12-13T06:08:48.159Z,30.7
2018-12-13T06:09:38.526Z,29.9
2018-12-13T06:10:28.284Z,28.4
2018-12-13T06:11:19.191Z,27.4
2018-12-13T06:12:09.534Z,26.4
2018-12-13T06:12:58.847Z,25.1
2018-12-13T06:13:48.891Z,24
2018-12-13T06:14:38.973Z,23.9
2018-12-13T06:15:28.149Z,24
2018-12-13T06:16:19.563Z,25.2
2018-12-13T06:17:09.578Z,26.1
2018-12-13T06:17:59.096Z,26.9
2018-12-13T06:18:49.684Z,27.8
2018-12-13T06:19:39.494Z,28.3
2018-12-13T06:20:30.111Z,28.7
2018-12-13T06:21:19.658Z,29.1
2018-12-13T06:22:09.172Z,29.4
2018-12-13T06:22:59.760Z,29.7
2018-12-13T06:23:49.816Z,30
2018-12-13T06:24:39.066Z,30.3
2018-12-13T06:25:29.660Z,30.5
2018-12-13T06:26:20.268Z,30.8
2018-12-13T06:27:09.704Z,30.9
2018-12-13T06:27:59.490Z,31.1
2018-12-13T06:28:50.096Z,31.4
2018-12-13T06:29:58.613Z,31.5
2018-12-13T06:30:29.183Z,31.8
2018-12-13T06:31:21.135Z,31.8
2018-12-13T06:32:10.016Z,32
2018-12-13T06:33:00.648Z,32.1
2018-12-13T06:33:50.450Z,32.3
2018-12-13T06:34:40.738Z,32.3
2018-12-13T06:35:30.823Z,32.4
2018-12-13T06:36:21.168Z,32.5
2018-12-13T06:37:11.513Z,32.6
2018-12-13T06:38:07.373Z,32.7
2018-12-13T06:38:51.051Z,32.8
2018-12-13T06:39:40.570Z,32.5
2018-12-13T06:40:30.376Z,31.7
2018-12-13T06:41:21.525Z,31.5
2018-12-13T06:42:11.787Z,31.3
2018-12-13T06:43:01.349Z,31.2
2018-12-13T06:43:52.302Z,31
2018-12-13T06:44:41.253Z,30.9
2018-12-13T06:45:30.978Z,30.8
2018-12-13T06:46:21.102Z,30.7
2018-12-13T06:47:11.665Z,30.6
2018-12-13T06:48:01.695Z,30.5
2018-12-13T06:48:50.947Z,30.3
2018-12-13T06:49:40.212Z,29.6
2018-12-13T06:50:30.562Z,29.1
2018-12-13T06:51:23.120Z,28.6
2018-12-13T06:52:11.880Z,28.4
2018-12-13T06:53:01.832Z,28.2
2018-12-13T06:53:51.474Z,28
2018-12-13T06:54:42.141Z,27.9
2018-12-13T06:56:22.044Z,27.8
2018-12-13T06:57:11.542Z,27.7
2018-12-13T06:58:03.018Z,27.6
2018-12-13T06:58:52.554Z,27.6
2018-12-13T06:59:42.754Z,27.1
2018-12-13T07:00:32.269Z,26.6
2018-12-13T07:01:21.791Z,26.3
2018-12-13T07:02:12.107Z,26
2018-12-13T07:03:02.465Z,25.9
2018-12-13T07:03:52.493Z,25.8
2018-12-13T07:04:42.599Z,25.6
2018-12-13T07:05:32.034Z,25.6
2018-12-13T07:06:21.939Z,25.4
2018-12-13T07:07:12.516Z,25.4
2018-12-13T07:08:09.411Z,25.4
2018-12-13T07:08:52.351Z,25.3
2018-12-13T07:09:42.940Z,25.1
2018-12-13T07:10:32.951Z,25.1
2018-12-13T07:11:22.743Z,26
2018-12-13T07:12:13.623Z,26.6
2018-12-13T07:13:03.623Z,27.3
2018-12-13T07:13:52.613Z,27.9
2018-12-13T07:14:42.956Z,28.5
2018-12-13T07:15:33.013Z,29.2
2018-12-13T07:16:23.880Z,29.7
2018-12-13T07:17:13.953Z,29.9
2018-12-13T07:18:03.697Z,30.1
2018-12-13T07:18:52.955Z,30.3
2018-12-13T07:19:44.103Z,30.5
2018-12-13T07:20:33.778Z,30.7
2018-12-13T07:21:23.388Z,30.9
2018-12-13T07:22:12.342Z,31.1
2018-12-13T07:23:04.126Z,31.3
2018-12-13T07:23:53.848Z,31.4
2018-12-13T07:24:44.192Z,31.6
2018-12-13T07:25:33.696Z,31.8
2018-12-13T07:26:24.028Z,31.9
2018-12-13T07:27:13.846Z,32
2018-12-13T07:28:04.160Z,32.1
2018-12-13T07:28:53.094Z,32.2
2018-12-13T07:29:44.025Z,32.3
2018-12-13T07:30:33.155Z,32.4
2018-12-13T07:31:24.097Z,32.6
2018-12-13T07:32:13.400Z,32.6
2018-12-13T07:33:04.757Z,32.7
2018-12-13T07:33:54.275Z,32.8
2018-12-13T07:34:44.579Z,32.9
2018-12-13T07:35:34.418Z,32.9
2018-12-13T07:36:24.226Z,32.3
2018-12-13T07:37:13.445Z,31.7
2018-12-13T07:38:04.360Z,31.5
2018-12-13T07:38:54.672Z,31.3
2018-12-13T07:39:45.310Z,31.1
2018-12-13T07:40:34.241Z,30.9
2018-12-13T07:41:24.804Z,30.8
2018-12-13T07:42:14.081Z,30.7
2018-12-13T07:43:04.177Z,30.6
2018-12-13T07:43:54.709Z,30.5
2018-12-13T07:44:45.091Z,30.4
2018-12-13T07:45:35.181Z,30.4
2018-12-13T07:46:24.585Z,29.9
2018-12-13T07:47:15.164Z,29.3
2018-12-13T07:48:06.129Z,28.8
2018-12-13T07:49:00.856Z,28.4
2018-12-13T07:49:44.893Z,28.2
2018-12-13T07:50:34.663Z,28
2018-12-13T07:51:26.275Z,27.9
2018-12-13T07:52:15.521Z,27.8
2018-12-13T07:53:05.297Z,27.7
2018-12-13T07:53:55.927Z,27.6
2018-12-13T07:54:46.423Z,27.6
2018-12-13T07:55:35.758Z,27.5
2018-12-13T07:56:26.878Z,27.4
2018-12-13T07:57:15.859Z,26.7
2018-12-13T07:58:06.804Z,26.3
2018-12-13T07:58:56.039Z,26.1
2018-12-13T07:59:47.088Z,25.9
2018-12-13T08:00:36.125Z,25.7
2018-12-13T08:01:26.488Z,25.6
2018-12-13T08:02:15.736Z,25.5
2018-12-13T08:03:06.075Z,25.4
2018-12-13T08:03:57.142Z,25.4
2018-12-13T08:04:46.888Z,25.4
2018-12-13T08:05:36.728Z,25.3
2018-12-13T08:06:26.757Z,25.3
2018-12-13T08:07:16.277Z,24.9
2018-12-13T08:08:06.921Z,25.4
2018-12-13T08:08:57.002Z,26.2
2018-12-13T08:09:47.605Z,26.9
2018-12-13T08:10:35.935Z,27.6
2018-12-13T08:11:27.093Z,28.2
2018-12-13T08:12:17.160Z,28.9
2018-12-13T08:13:07.824Z,29.5
2018-12-13T08:13:57.137Z,29.8
2018-12-13T08:14:47.597Z,30
2018-12-13T08:15:37.755Z,30.2
2018-12-13T08:16:27.462Z,30.4
2018-12-13T08:17:17.785Z,30.6
2018-12-13T08:18:07.585Z,30.8
2018-12-13T08:18:57.399Z,31
2018-12-13T08:19:48.329Z,30.6
2018-12-13T08:20:35.937Z,29.6
2018-12-13T08:21:27.492Z,28.3
2018-12-13T08:22:17.094Z,27.3
2018-12-13T08:23:07.979Z,26.3
2018-12-13T08:23:57.974Z,24.9
2018-12-13T08:24:47.564Z,23.8
2018-12-13T08:25:37.806Z,23.9
2018-12-13T08:26:28.149Z,24
2018-12-13T08:27:17.935Z,25.3
2018-12-13T08:28:09.179Z,26.1
2018-12-13T08:28:58.324Z,27
2018-12-13T08:29:49.224Z,27.8
2018-12-13T08:30:38.703Z,28.4
2018-12-13T08:31:28.764Z,28.9
2018-12-13T08:32:19.066Z,29.3
2018-12-13T08:33:08.848Z,29.6
2018-12-13T08:33:58.419Z,30
2018-12-13T08:34:48.110Z,30.3
2018-12-13T08:35:38.851Z,30.6
2018-12-13T08:36:28.968Z,30.9
2018-12-13T08:37:18.368Z,31.2
2018-12-13T08:38:08.021Z,31.4
2018-12-13T08:38:59.076Z,31.6
2018-12-13T08:39:48.788Z,31.8
2018-12-13T08:40:39.756Z,32
2018-12-13T08:41:28.916Z,32.2
2018-12-13T08:42:20.036Z,32.3
2018-12-13T08:43:09.573Z,32.5
2018-12-13T08:43:58.565Z,32.6
2018-12-13T08:44:49.375Z,32.8
2018-12-13T08:45:39.538Z,32.9
2018-12-13T08:46:36.328Z,33
2018-12-13T08:47:19.293Z,32.9
2018-12-13T08:48:09.927Z,32.1
2018-12-13T08:48:59.430Z,31.8
2018-12-13T08:49:49.768Z,31.6
2018-12-13T08:50:40.610Z,31.3
2018-12-13T08:51:29.160Z,30.8
2018-12-13T08:52:18.828Z,30.3
2018-12-13T08:53:10.648Z,29.6
2018-12-13T08:54:00.028Z,29.1
2018-12-13T08:54:49.267Z,28.6
2018-12-13T08:55:38.320Z,28.3
2018-12-13T08:56:30.598Z,28.1
2018-12-13T08:57:19.990Z,27.9
2018-12-13T08:58:09.843Z,27.7
2018-12-13T08:59:00.947Z,27.5
2018-12-13T08:59:50.202Z,27.3
2018-12-13T09:00:40.772Z,27.3
2018-12-13T09:16:35.138Z,25.1
2018-12-13T09:17:19.544Z,26.3
2018-12-13T09:18:08.064Z,26.9
2018-12-13T09:18:59.254Z,27.6
2018-12-13T09:19:50.091Z,28.3
2018-12-13T09:20:39.580Z,28.9
2018-12-13T09:21:30.259Z,29.3
2018-12-13T09:22:19.414Z,29.6
2018-12-13T09:23:08.936Z,29.9
2018-12-13T09:23:59.846Z,30.3
2018-12-13T09:24:49.886Z,30.6
2018-12-13T09:25:39.661Z,30.9
2018-12-13T09:26:30.085Z,31.1
2018-12-13T09:27:20.789Z,31.4
2018-12-13T09:28:10.189Z,31.6
2018-12-13T09:29:00.248Z,31.8
2018-12-13T09:29:50.146Z,32
2018-12-13T09:30:40.914Z,32.3
2018-12-13T09:31:30.313Z,32.4
2018-12-13T09:32:20.388Z,32.6
2018-12-13T09:33:10.156Z,32.7
2018-12-13T09:34:00.775Z,32.9
2018-12-13T09:34:50.856Z,33
2018-12-13T09:35:40.896Z,33.1
2018-12-13T09:36:30.658Z,33.1
2018-12-13T09:37:21.298Z,32.1
2018-12-13T09:38:10.573Z,31.8
2018-12-13T09:39:00.846Z,31.7
2018-12-13T09:39:50.659Z,31.3
2018-12-13T09:40:41.746Z,30.9
2018-12-13T09:41:31.120Z,30.3
2018-12-13T09:42:21.072Z,29.8
2018-12-13T09:43:11.200Z,29.4
2018-12-13T09:44:01.247Z,29.1
2018-12-13T09:44:51.240Z,28.8
2018-12-13T09:45:41.052Z,28.6
2018-12-13T09:46:31.065Z,28.5
2018-12-13T09:47:21.715Z,28.4
2018-12-13T09:48:11.469Z,28.3
2018-12-13T09:49:00.987Z,28.2
2018-12-13T09:49:51.360Z,28.1
2018-12-13T09:50:41.367Z,28.1
2018-12-13T09:51:31.464Z,28.1
2018-12-13T09:52:21.759Z,28
2018-12-13T09:53:12.107Z,28
2018-12-13T09:54:01.630Z,27.9
2018-12-13T09:54:51.657Z,27.9
2018-12-13T09:58:12.439Z,27.7
2018-12-13T09:59:01.397Z,27.7
2018-12-13T09:59:51.706Z,27.6
2018-12-13T10:00:43.138Z,27.6
2018-12-13T10:01:31.839Z,27.6
2018-12-13T10:02:21.889Z,27.5
2018-12-13T10:03:12.508Z,27.5
2018-12-13T10:04:02.853Z,27.4
2018-12-13T10:04:52.404Z,27.4
2018-12-13T10:05:42.145Z,27.3
2018-12-13T10:06:32.241Z,27.3
2018-12-13T10:07:22.305Z,27.1
2018-12-13T10:08:13.456Z,27.1
2018-12-13T10:09:02.916Z,27
2018-12-13T10:09:52.700Z,26.9
2018-12-13T10:10:43.917Z,26.9
2018-12-13T10:11:33.101Z,26.8
2018-12-13T10:12:22.569Z,26.8
2018-12-13T10:13:13.486Z,26.8
2018-12-13T10:14:02.230Z,26.7
2018-12-13T10:14:52.607Z,26.6
2018-12-13T10:15:43.176Z,26.6
2018-12-13T10:16:33.499Z,26.5
2018-12-13T10:17:23.649Z,26.4
2018-12-13T10:18:13.283Z,26.4
2018-12-13T10:19:03.623Z,26.3
2018-12-13T10:19:53.450Z,26.3
2018-12-13T10:20:44.007Z,26.1
2018-12-13T10:21:34.096Z,26.1
2018-12-13T10:22:24.123Z,26
2018-12-13T10:23:13.615Z,26
2018-12-13T10:24:04.542Z,25.9
2018-12-13T10:24:53.719Z,25.8
2018-12-13T10:25:44.107Z,25.7
2018-12-13T10:26:34.132Z,25.6
2018-12-13T10:27:24.507Z,25.5
2018-12-13T10:28:14.599Z,25.4
2018-12-13T10:29:04.639Z,25.4
2018-12-13T10:29:54.894Z,25.3
2018-12-13T10:30:44.197Z,25.3
2018-12-13T10:31:35.019Z,25.2
2018-12-13T10:32:24.377Z,25.1
2018-12-13T10:33:14.269Z,25.1
2018-12-13T10:34:04.951Z,25
2018-12-13T10:34:54.432Z,24.9
2018-12-13T10:35:44.213Z,24.8
2018-12-13T10:36:35.369Z,24.8
2018-12-13T10:37:24.906Z,24.6
2018-12-13T10:38:14.578Z,24.6
2018-12-13T10:39:04.689Z,24.4
2018-12-13T10:39:55.027Z,24.4
2018-12-13T10:40:45.653Z,24.3
2018-12-13T10:41:34.734Z,24.3
2018-12-13T10:42:26.438Z,24.3
2018-12-13T10:43:15.243Z,24.3
2018-12-13T10:44:05.402Z,24.2
2018-12-13T10:44:55.375Z,24.1
2018-12-13T10:45:45.151Z,24.1
2018-12-13T10:46:36.364Z,24.1
2018-12-13T10:47:25.505Z,24
2018-12-13T10:48:16.140Z,24
2018-12-13T10:49:04.914Z,23.9
2018-12-13T10:49:55.810Z,23.9
2018-12-13T10:50:44.790Z,23.9
2018-12-13T10:51:35.085Z,23.9
2018-12-13T10:52:27.381Z,23.8
2018-12-13T10:53:15.719Z,23.8
2018-12-13T10:54:05.253Z,23.8
2018-12-13T10:54:56.673Z,23.8
2018-12-13T10:55:46.171Z,23.7
2018-12-13T10:56:36.186Z,23.6
2018-12-13T10:57:26.273Z,23.6
2018-12-13T10:58:16.351Z,23.6
2018-12-13T10:59:05.543Z,23.5
2018-12-13T10:59:56.183Z,23.5
2018-12-13T11:00:46.213Z,23.4
2018-12-13T11:01:37.093Z,23.4
2018-12-13T11:02:26.825Z,23.4
2018-12-13T11:03:16.353Z,23.3
2018-12-13T11:04:05.560Z,23.3
2018-12-13T11:04:56.279Z,23.3
2018-12-13T11:05:46.790Z,23.3
2018-12-13T11:06:36.340Z,23.2
2018-12-13T11:07:27.292Z,23.2
2018-12-13T11:08:16.950Z,23.1
2018-12-13T11:09:07.520Z,23.1
2018-12-13T11:09:57.382Z,23.1
2018-12-13T11:10:47.669Z,23.1
2018-12-13T11:11:37.202Z,23
2018-12-13T11:12:26.749Z,23
2018-12-13T11:13:17.149Z,23
2018-12-13T11:14:07.885Z,22.9
2018-12-13T11:14:57.986Z,22.9
2018-12-13T11:15:47.360Z,22.9
2018-12-13T11:16:36.715Z,22.9
2018-12-13T11:17:27.617Z,22.8
2018-12-13T11:18:17.676Z,22.8
2018-12-13T11:19:08.274Z,22.8
2018-12-13T11:19:57.070Z,22.8
2018-12-13T11:20:46.824Z,22.7
2018-12-13T11:21:37.209Z,22.7
2018-12-13T11:22:27.217Z,22.7
2018-12-13T11:23:17.716Z,22.6
2018-12-13T11:24:09.136Z,22.6
2018-12-13T11:24:57.855Z,22.6
2018-12-13T11:25:48.268Z,22.6
2018-12-13T11:26:38.531Z,22.6
2018-12-13T11:27:28.276Z,22.5
2018-12-13T11:28:18.875Z,22.5
2018-12-13T11:29:09.111Z,22.5
2018-12-13T11:29:57.918Z,22.4
2018-12-13T11:30:48.583Z,22.4
2018-12-13T11:31:38.838Z,22.4
2018-12-13T11:32:28.156Z,22.4
2018-12-13T11:33:19.246Z,22.4
2018-12-13T11:34:08.275Z,22.4
2018-12-13T11:34:58.508Z,22.3
2018-12-13T11:35:47.503Z,22.3
2018-12-13T11:36:39.290Z,22.3
2018-12-13T11:37:29.000Z,22.3
2018-12-13T11:38:18.253Z,22.3
2018-12-13T11:39:13.478Z,22.2
2018-12-13T11:39:59.227Z,22.2
2018-12-13T11:40:48.653Z,22.2
2018-12-13T11:41:38.734Z,22.2
2018-12-13T11:42:29.086Z,22.1
2018-12-13T11:43:19.402Z,22.1
2018-12-13T11:44:09.330Z,22.1
2018-12-13T11:44:59.860Z,22.1
2018-12-13T11:45:49.147Z,22.1
2018-12-13T11:46:39.414Z,22.1
2018-12-13T11:47:29.362Z,22
2018-12-13T11:48:20.060Z,22
2018-12-13T11:49:16.087Z,22
2018-12-13T11:49:59.917Z,21.9
2018-12-13T11:50:50.465Z,21.9
2018-12-13T11:51:39.672Z,21.9
2018-12-13T11:52:29.747Z,21.9
2018-12-13T11:53:19.579Z,21.9
2018-12-13T11:54:10.429Z,21.9
2018-12-13T11:54:59.899Z,21.9
2018-12-13T11:55:50.247Z,21.9
2018-12-13T11:56:40.842Z,21.8
2018-12-13T11:57:30.630Z,21.8
2018-12-13T11:58:20.980Z,21.8
2018-12-13T11:59:09.935Z,21.8
2018-12-13T12:00:01.086Z,21.8
2018-12-13T12:00:50.635Z,21.8
2018-12-13T12:01:40.616Z,21.8
2018-12-13T12:02:32.052Z,21.8
2018-12-13T12:03:20.774Z,21.8